createdAt,value
2022-09-20T00:00:40.795Z,11.2
2022-09-20T00:03:40.827Z,11.1
2022-09-20T00:06:40.815Z,11.1
2022-09-20T00:09:40.809Z,11
2022-09-20T00:12:40.827Z,11
2022-09-20T00:15:40.824Z,11
2022-09-20T00:18:40.832Z,11
2022-09-20T00:21:40.836Z,10.9
2022-09-20T00:24:40.844Z,10.9
2022-09-20T00:27:40.842Z,10.8
2022-09-20T00:30:40.868Z,10.8
2022-09-20T00:33:40.857Z,10.8
2022-09-20T00:36:40.892Z,10.7
2022-09-20T00:39:40.878Z,10.7
2022-09-20T00:42:40.878Z,10.6
2022-09-20T00:45:40.883Z,10.6
2022-09-20T00:48:40.884Z,10.5
2022-09-20T00:51:40.886Z,10.5
2022-09-20T00:54:40.898Z,10.5
2022-09-20T00:57:40.917Z,10.5
2022-09-20T01:00:40.920Z,10.4
2022-09-20T01:06:40.950Z,10.4
2022-09-20T01:09:40.921Z,10.4
2022-09-20T01:12:40.929Z,10.3
2022-09-20T01:15:40.937Z,10.3
2022-09-20T01:18:40.948Z,10.2
2022-09-20T01:21:40.946Z,10.2
2022-09-20T01:24:40.946Z,10.2
2022-09-20T01:27:40.947Z,10.2
2022-09-20T01:30:40.950Z,10.2
2022-09-20T01:33:40.955Z,10.2
2022-09-20T01:36:40.960Z,10.2
2022-09-20T01:39:40.977Z,10.3
2022-09-20T01:42:40.982Z,10.3
2022-09-20T01:45:40.978Z,10.3
2022-09-20T01:48:40.983Z,10.3
2022-09-20T01:51:40.984Z,10.2
2022-09-20T01:54:40.987Z,10.2
2022-09-20T01:57:40.993Z,10.2
2022-09-20T02:00:41.000Z,10.2
2022-09-20T02:03:41.012Z,10.2
2022-09-20T02:06:41.019Z,10.1
2022-09-20T02:09:41.025Z,10.1
2022-09-20T02:12:41.036Z,10.1
2022-09-20T02:15:41.016Z,10
2022-09-20T02:18:41.033Z,10
2022-09-20T02:21:41.045Z,10
2022-09-20T02:24:41.043Z,9.9
2022-09-20T02:27:41.049Z,9.9
2022-09-20T02:30:41.045Z,9.9
2022-09-20T02:33:41.059Z,9.9
2022-09-20T02:36:41.067Z,9.8
2022-09-20T02:39:41.062Z,9.8
2022-09-20T02:42:41.073Z,9.7
2022-09-20T02:45:41.065Z,9.7
2022-09-20T02:48:41.074Z,9.6
2022-09-20T02:51:41.094Z,9.6
2022-09-20T02:54:41.090Z,9.6
2022-09-20T02:57:41.099Z,9.5
2022-09-20T03:00:41.107Z,9.5
2022-09-20T03:03:41.110Z,9.5
2022-09-20T03:06:41.120Z,9.5
2022-09-20T03:09:41.134Z,9.4
2022-09-20T03:15:41.127Z,9.4
2022-09-20T03:18:41.121Z,9.3
2022-09-20T03:21:41.151Z,9.3
2022-09-20T03:24:41.144Z,9.3
2022-09-20T03:27:41.139Z,9.3
2022-09-20T03:30:41.161Z,9.3
2022-09-20T03:33:41.149Z,9.3
2022-09-20T03:36:41.151Z,9.3
2022-09-20T03:39:41.169Z,9.3
2022-09-20T03:42:41.166Z,9.3
2022-09-20T03:45:41.183Z,9.3
2022-09-20T03:48:41.200Z,9.3
2022-09-20T03:51:41.203Z,9.3
2022-09-20T03:54:41.211Z,9.3
2022-09-20T03:57:41.199Z,9.3
2022-09-20T04:00:41.204Z,9.3
2022-09-20T04:03:41.214Z,9.3
2022-09-20T04:06:41.231Z,9.3
2022-09-20T04:09:41.231Z,9.3
2022-09-20T04:12:41.225Z,9.2
2022-09-20T04:15:41.245Z,9.2
2022-09-20T04:18:41.242Z,9.2
2022-09-20T04:21:41.254Z,9.2
2022-09-20T04:24:41.260Z,9.2
2022-09-20T04:27:41.267Z,9.2
2022-09-20T04:30:41.250Z,9.1
2022-09-20T04:33:41.256Z,9.1
2022-09-20T04:36:41.278Z,9.1
2022-09-20T04:39:41.274Z,9.1
2022-09-20T04:42:41.270Z,9.1
2022-09-20T04:45:41.287Z,9.1
2022-09-20T04:48:41.302Z,9.2
2022-09-20T04:51:41.307Z,9.2
2022-09-20T04:54:41.306Z,9.2
2022-09-20T04:57:41.311Z,9.2
2022-09-20T05:00:41.300Z,9.2
2022-09-20T05:03:41.309Z,9.2
2022-09-20T05:06:41.317Z,9.2
2022-09-20T05:09:41.337Z,9.3
2022-09-20T05:12:41.318Z,9.3
2022-09-20T05:15:41.337Z,9.3
2022-09-20T05:18:41.350Z,9.3
2022-09-20T05:21:41.347Z,9.3
2022-09-20T05:24:41.339Z,9.4
2022-09-20T05:27:41.358Z,9.4
2022-09-20T05:30:41.374Z,9.4
2022-09-20T05:33:41.364Z,9.4
2022-09-20T05:36:41.367Z,9.4
2022-09-20T05:39:41.437Z,9.4
2022-09-20T05:42:41.374Z,9.4
2022-09-20T05:45:41.386Z,9.4
2022-09-20T05:48:41.394Z,9.4
2022-09-20T05:51:41.389Z,9.4
2022-09-20T05:54:41.411Z,9.4
2022-09-20T05:57:41.410Z,9.4
2022-09-20T06:00:41.443Z,9.4
2022-09-20T06:03:41.424Z,9.4
2022-09-20T06:06:41.435Z,9.4
2022-09-20T06:09:41.461Z,9.4
2022-09-20T06:12:41.587Z,9.4
2022-09-20T06:15:41.506Z,9.4
2022-09-20T06:18:41.482Z,9.4
2022-09-20T06:21:41.458Z,9.4
2022-09-20T06:24:41.466Z,9.4
2022-09-20T06:27:41.541Z,9.4
2022-09-20T06:30:41.485Z,9.4
2022-09-20T06:33:41.468Z,9.4
2022-09-20T06:36:41.480Z,9.5
2022-09-20T06:39:41.479Z,9.5
2022-09-20T06:42:41.487Z,9.5
2022-09-20T06:45:41.714Z,9.6
2022-09-20T06:48:41.504Z,9.6
2022-09-20T06:51:41.526Z,9.7
2022-09-20T06:54:41.514Z,9.7
2022-09-20T06:57:41.519Z,9.8
2022-09-20T07:00:41.523Z,9.9
2022-09-20T07:03:41.519Z,9.9
2022-09-20T07:06:41.567Z,10
2022-09-20T07:09:41.558Z,10.1
2022-09-20T07:12:41.627Z,10.1
2022-09-20T07:15:41.545Z,10.2
2022-09-20T07:18:41.553Z,10.3
2022-09-20T07:21:41.578Z,10.3
2022-09-20T07:24:41.574Z,10.4
2022-09-20T07:27:41.576Z,10.5
2022-09-20T07:30:41.577Z,10.6
2022-09-20T07:33:41.574Z,10.6
2022-09-20T07:36:41.594Z,10.7
2022-09-20T07:39:41.606Z,10.8
2022-09-20T07:42:41.663Z,10.9
2022-09-20T07:45:41.617Z,11
2022-09-20T07:48:41.702Z,11.1
2022-09-20T07:51:41.625Z,11.2
2022-09-20T07:54:41.630Z,11.2
2022-09-20T07:57:41.644Z,11.3
2022-09-20T08:00:41.641Z,11.4
2022-09-20T08:03:41.658Z,11.5
2022-09-20T08:06:41.661Z,11.5
2022-09-20T08:09:41.679Z,11.7
2022-09-20T08:12:41.671Z,11.8
2022-09-20T08:15:41.694Z,11.8
2022-09-20T08:18:41.702Z,12
2022-09-20T08:21:41.683Z,12.1
2022-09-20T08:24:41.720Z,12.3
2022-09-20T08:27:41.722Z,12.4
2022-09-20T08:30:41.721Z,12.5
2022-09-20T08:33:41.727Z,12.6
2022-09-20T08:36:41.726Z,12.7
2022-09-20T08:39:41.728Z,12.8
2022-09-20T08:42:41.750Z,12.9
2022-09-20T08:45:41.747Z,13
2022-09-20T08:48:41.747Z,13.1
2022-09-20T08:51:41.757Z,13.2
2022-09-20T08:54:41.760Z,13.3
2022-09-20T08:57:41.760Z,13.3
2022-09-20T09:00:41.753Z,13.4
2022-09-20T09:03:41.759Z,13.6
2022-09-20T09:06:41.779Z,13.6
2022-09-20T09:09:41.763Z,13.7
2022-09-20T09:12:41.775Z,13.8
2022-09-20T09:15:41.779Z,13.8
2022-09-20T09:18:41.793Z,13.9
2022-09-20T09:21:41.791Z,13.9
2022-09-20T09:24:41.821Z,14
2022-09-20T09:27:41.815Z,14
2022-09-20T09:30:41.825Z,14.1
2022-09-20T09:33:41.823Z,14.2
2022-09-20T09:36:41.823Z,14.5
2022-09-20T09:39:41.834Z,14.7
2022-09-20T09:42:41.835Z,15.2
2022-09-20T09:45:41.900Z,15.8
2022-09-20T09:48:41.852Z,16.5
2022-09-20T09:51:41.901Z,17.2
2022-09-20T09:54:42.011Z,17.7
2022-09-20T09:57:41.894Z,18.3
2022-09-20T10:00:42.047Z,18.8
2022-09-20T10:03:41.931Z,19.3
2022-09-20T10:06:41.885Z,19.9
2022-09-20T10:09:41.897Z,20.5
2022-09-20T10:12:41.907Z,21.2
2022-09-20T10:15:41.914Z,21.8
2022-09-20T10:18:41.920Z,22.3
2022-09-20T10:21:41.928Z,22.7
2022-09-20T10:24:41.929Z,22.9
2022-09-20T10:27:41.931Z,23
2022-09-20T10:30:41.934Z,23
2022-09-20T10:33:41.981Z,23.4
2022-09-20T10:36:41.964Z,23.7
2022-09-20T10:39:41.955Z,23.8
2022-09-20T10:42:41.960Z,24
2022-09-20T10:45:41.979Z,24.5
2022-09-20T10:48:41.954Z,24.8
2022-09-20T10:51:41.951Z,25
2022-09-20T10:54:42.022Z,25.8
2022-09-20T10:57:41.990Z,26.3
2022-09-20T11:00:42.000Z,26.2
2022-09-20T11:03:42.025Z,26.5
2022-09-20T11:06:42.004Z,26.5
2022-09-20T11:09:42.013Z,26.6
2022-09-20T11:12:42.014Z,26.8
2022-09-20T11:15:42.031Z,27.4
2022-09-20T11:18:42.036Z,27.6
2022-09-20T11:21:42.016Z,27.7
2022-09-20T11:24:42.029Z,27.6
2022-09-20T11:27:42.046Z,28
2022-09-20T11:30:42.048Z,28.2
2022-09-20T11:33:42.059Z,28.3
2022-09-20T11:36:42.059Z,28.3
2022-09-20T11:39:42.070Z,28.5
2022-09-20T11:42:42.067Z,28.6
2022-09-20T11:45:42.050Z,28.9
2022-09-20T11:48:42.092Z,29.3
2022-09-20T11:51:42.081Z,29.6
2022-09-20T11:54:42.087Z,29.8
2022-09-20T11:57:42.076Z,29.7
2022-09-20T12:00:42.082Z,29.7
2022-09-20T12:03:42.155Z,29.9
2022-09-20T12:06:42.130Z,29.9
2022-09-20T12:09:42.102Z,30.2
2022-09-20T12:12:42.122Z,30.3
2022-09-20T12:15:42.102Z,30.1
2022-09-20T12:18:42.149Z,30.1
2022-09-20T12:21:42.129Z,30.2
2022-09-20T12:24:42.133Z,30.6
2022-09-20T12:27:42.142Z,30.8
2022-09-20T12:30:42.127Z,31
2022-09-20T12:33:42.217Z,31
2022-09-20T12:36:42.138Z,31
2022-09-20T12:39:42.167Z,31
2022-09-20T12:42:42.155Z,30.9
2022-09-20T12:45:42.187Z,30.9
2022-09-20T12:48:42.170Z,31
2022-09-20T12:51:42.155Z,30.9
2022-09-20T12:54:42.173Z,30.8
2022-09-20T12:57:42.169Z,31.1
2022-09-20T13:00:42.174Z,31
2022-09-20T13:03:42.185Z,31.2
2022-09-20T13:06:42.216Z,31
2022-09-20T13:09:42.191Z,31
2022-09-20T13:12:42.203Z,31
2022-09-20T13:15:42.269Z,31
2022-09-20T13:18:42.203Z,30.7
2022-09-20T13:21:42.208Z,30.9
2022-09-20T13:24:42.260Z,30.9
2022-09-20T13:27:42.212Z,31.1
2022-09-20T13:30:42.219Z,30.9
2022-09-20T13:33:42.232Z,30.6
2022-09-20T13:36:42.226Z,30.6
2022-09-20T13:39:42.241Z,30.7
2022-09-20T13:42:42.234Z,30.6
2022-09-20T13:45:42.255Z,30.4
2022-09-20T13:48:42.252Z,30.3
2022-09-20T13:51:42.259Z,30.5
2022-09-20T13:54:42.304Z,30.3
2022-09-20T13:57:42.318Z,30.1
2022-09-20T14:00:42.269Z,30.2
2022-09-20T14:03:42.264Z,30.4
2022-09-20T14:06:42.282Z,30.5
2022-09-20T14:09:42.274Z,30.4
2022-09-20T14:12:42.294Z,30.2
2022-09-20T14:15:42.288Z,29.6
2022-09-20T14:18:42.290Z,29.2
2022-09-20T14:21:42.394Z,29.3
2022-09-20T14:24:42.306Z,29.4
2022-09-20T14:27:42.314Z,29.3
2022-09-20T14:30:42.326Z,29.3
2022-09-20T14:33:42.319Z,29.3
2022-09-20T14:36:42.321Z,29.2
2022-09-20T14:39:42.330Z,28.8
2022-09-20T14:42:42.319Z,28.5
2022-09-20T14:45:42.339Z,28.8
2022-09-20T14:48:42.359Z,28.7
2022-09-20T14:51:42.353Z,28.7
2022-09-20T14:54:42.336Z,28.9
2022-09-20T14:57:42.362Z,28.8
2022-09-20T15:00:42.369Z,28.8
2022-09-20T15:03:42.361Z,28.9
2022-09-20T15:06:42.388Z,28.9
2022-09-20T15:09:42.364Z,28.8
2022-09-20T15:12:42.400Z,28.9
2022-09-20T15:15:42.376Z,28.9
2022-09-20T15:18:42.400Z,28.9
2022-09-20T15:21:42.406Z,28.8
2022-09-20T15:24:42.395Z,28.6
2022-09-20T15:27:42.420Z,28.2
2022-09-20T15:30:42.420Z,28.4
2022-09-20T15:33:42.430Z,28.6
2022-09-20T15:36:42.417Z,28.3
2022-09-20T15:39:42.459Z,28.1
2022-09-20T15:42:42.441Z,27.9
2022-09-20T15:45:42.443Z,27.9
2022-09-20T15:48:42.472Z,27.8
2022-09-20T15:51:42.456Z,27.7
2022-09-20T15:54:42.490Z,27.4
2022-09-20T15:57:42.462Z,27.3
2022-09-20T16:00:42.464Z,27.2
2022-09-20T16:03:42.500Z,27.2
2022-09-20T16:06:42.456Z,27
2022-09-20T16:09:42.473Z,27
2022-09-20T16:12:42.486Z,27.1
2022-09-20T16:15:42.503Z,27.2
2022-09-20T16:18:42.502Z,27
2022-09-20T16:21:42.510Z,26.9
2022-09-20T16:24:42.512Z,26.8
2022-09-20T16:27:42.530Z,26.7
2022-09-20T16:30:42.499Z,26.7
2022-09-20T16:33:42.515Z,26.6
2022-09-20T16:36:42.534Z,26.3
2022-09-20T16:39:42.551Z,26.1
2022-09-20T16:42:42.563Z,26.1
2022-09-20T16:45:42.543Z,25.9
2022-09-20T16:48:42.533Z,25.8
2022-09-20T16:51:42.542Z,25.6
2022-09-20T16:54:42.540Z,25.5
2022-09-20T16:57:42.551Z,25.3
2022-09-20T17:00:42.551Z,25.2
2022-09-20T17:03:42.597Z,24.8
2022-09-20T17:06:42.552Z,24.7
2022-09-20T17:09:42.574Z,24.5
2022-09-20T17:12:42.569Z,24.4
2022-09-20T17:15:42.579Z,24.3
2022-09-20T17:18:42.574Z,24.3
2022-09-20T17:21:42.589Z,24.3
2022-09-20T17:24:42.606Z,24.1
2022-09-20T17:27:42.593Z,23.6
2022-09-20T17:30:42.590Z,23.2
2022-09-20T17:33:42.588Z,22.8
2022-09-20T17:36:42.623Z,22.4
2022-09-20T17:39:42.753Z,21.9
2022-09-20T17:42:42.621Z,21.5
2022-09-20T17:45:42.623Z,21.2
2022-09-20T17:48:42.633Z,21
2022-09-20T17:51:42.622Z,20.6
2022-09-20T17:54:42.643Z,20.3
2022-09-20T17:57:42.644Z,19.9
2022-09-20T18:00:42.659Z,19.6
2022-09-20T18:03:42.669Z,19.3
2022-09-20T18:06:42.644Z,19.1
2022-09-20T18:09:42.719Z,18.8
2022-09-20T18:12:42.696Z,18.6
2022-09-20T18:15:42.669Z,18.4
2022-09-20T18:18:42.679Z,18.2
2022-09-20T18:21:42.742Z,18
2022-09-20T18:24:42.700Z,17.9
2022-09-20T18:27:42.688Z,17.7
2022-09-20T18:30:42.701Z,17.5
2022-09-20T18:33:42.713Z,17.3
2022-09-20T18:36:42.744Z,17.2
2022-09-20T18:39:42.730Z,17.1
2022-09-20T18:42:42.737Z,16.9
2022-09-20T18:45:42.760Z,16.8
2022-09-20T18:48:42.783Z,16.7
2022-09-20T18:51:42.759Z,16.6
2022-09-20T18:54:42.767Z,16.4
2022-09-20T18:57:42.756Z,16.3
2022-09-20T19:00:42.751Z,16.2
2022-09-20T19:03:42.761Z,16.1
2022-09-20T19:06:42.794Z,16
2022-09-20T19:09:42.814Z,15.8
2022-09-20T19:12:42.794Z,15.8
2022-09-20T19:15:42.840Z,15.7
2022-09-20T19:18:42.804Z,15.6
2022-09-20T19:21:42.799Z,15.5
2022-09-20T19:24:42.808Z,15.4
2022-09-20T19:27:42.800Z,15.3
2022-09-20T19:30:42.806Z,15.2
2022-09-20T19:33:42.821Z,15.2
2022-09-20T19:36:42.895Z,15.2
2022-09-20T19:39:42.883Z,15.1
2022-09-20T19:42:42.838Z,15
2022-09-20T19:45:42.851Z,14.9
2022-09-20T19:48:42.848Z,14.8
2022-09-20T19:51:42.851Z,14.8
2022-09-20T19:54:42.842Z,14.7
2022-09-20T19:57:42.872Z,14.6
2022-09-20T20:00:42.859Z,14.5
2022-09-20T20:03:43.047Z,14.4
2022-09-20T20:06:42.868Z,14.3
2022-09-20T20:09:42.922Z,14.2
2022-09-20T20:12:42.863Z,14.2
2022-09-20T20:15:42.872Z,14
2022-09-20T20:18:42.883Z,14
2022-09-20T20:21:42.886Z,13.9
2022-09-20T20:24:42.892Z,13.8
2022-09-20T20:27:42.896Z,13.8
2022-09-20T20:30:42.953Z,13.7
2022-09-20T20:33:42.897Z,13.6
2022-09-20T20:36:42.922Z,13.5
2022-09-20T20:39:42.929Z,13.5
2022-09-20T20:42:42.995Z,13.4
2022-09-20T20:45:43.010Z,13.4
2022-09-20T20:48:42.974Z,13.3
2022-09-20T20:51:43.052Z,13.2
2022-09-20T20:54:42.952Z,13.1
2022-09-20T20:57:42.966Z,13.1
2022-09-20T21:00:42.981Z,13.1
2022-09-20T21:03:43.050Z,13
2022-09-20T21:06:42.993Z,13
2022-09-20T21:09:42.986Z,12.9
2022-09-20T21:12:42.999Z,12.9
2022-09-20T21:15:43.003Z,12.9
2022-09-20T21:18:43.033Z,12.8
2022-09-20T21:21:43.021Z,12.8
2022-09-20T21:24:43.016Z,12.8
2022-09-20T21:27:43.018Z,12.8
2022-09-20T21:30:43.024Z,12.8
2022-09-20T21:33:43.033Z,12.8
2022-09-20T21:36:43.050Z,12.8
2022-09-20T21:39:43.083Z,12.9
2022-09-20T21:42:43.061Z,12.9
2022-09-20T21:45:43.079Z,12.9
2022-09-20T21:48:43.066Z,12.8
2022-09-20T21:51:43.096Z,12.8
2022-09-20T21:54:43.077Z,12.7
2022-09-20T21:57:43.083Z,12.7
2022-09-20T22:00:43.123Z,12.7
2022-09-20T22:03:43.116Z,12.6
2022-09-20T22:06:43.331Z,12.6
2022-09-20T22:09:43.172Z,12.5
2022-09-20T22:12:43.134Z,12.5
2022-09-20T22:15:43.176Z,12.5
2022-09-20T22:18:43.142Z,12.5
2022-09-20T22:21:43.158Z,12.5
2022-09-20T22:24:43.143Z,12.5
2022-09-20T22:27:43.156Z,12.5
2022-09-20T22:30:43.157Z,12.4
2022-09-20T22:33:43.165Z,12.4
2022-09-20T22:36:43.163Z,12.4
2022-09-20T22:39:43.174Z,12.3
2022-09-20T22:42:43.176Z,12.3
2022-09-20T22:45:43.202Z,12.3
2022-09-20T22:48:43.202Z,12.3
2022-09-20T22:51:43.221Z,12.4
2022-09-20T22:54:43.192Z,12.3
2022-09-20T22:57:43.207Z,12.4
2022-09-20T23:00:43.222Z,12.3
2022-09-20T23:03:43.229Z,12.3
2022-09-20T23:06:43.283Z,12.3
2022-09-20T23:09:43.230Z,12.2
2022-09-20T23:12:43.225Z,12.2
2022-09-20T23:15:43.242Z,12.1
2022-09-20T23:18:43.297Z,12
2022-09-20T23:21:43.250Z,11.9
2022-09-20T23:24:43.272Z,11.9
2022-09-20T23:27:43.277Z,11.8
2022-09-20T23:30:43.286Z,11.8
2022-09-20T23:33:43.289Z,11.7
2022-09-20T23:39:43.294Z,11.7
2022-09-20T23:42:43.297Z,11.6
2022-09-20T23:45:43.303Z,11.6
2022-09-20T23:48:43.314Z,11.6
2022-09-20T23:51:43.302Z,11.6
2022-09-20T23:54:43.326Z,11.5
2022-09-20T23:57:43.337Z,11.5
